Time;durP1;ratioP1;P1;durP2;ratioP2;P2;SDS_P1;SDS_P2;PMS_P1;PMS_P2;Temp;Humidity;BMP_temperature;BMP_pressure;BME280_temperature;BME280_humidity;BME280_pressure;Samples;Min_cycle;Max_cycle;Signal;HPM_P1;HPM_P2
2021/06/14 00:01:13;;;;;;;5.10;2.97;;;;;;;;;;5128964;28;20026;-74
2021/06/14 00:03:39;;;;;;;6.70;3.28;;;;;;;;;;5114454;28;20030;-75
2021/06/14 00:06:06;;;;;;;9.55;3.38;;;;;;;;;;5131252;28;20081;-73
2021/06/14 00:08:43;;;;;;;8.20;3.25;;;;;;;;;;5122280;27;20035;-68
2021/06/14 00:11:09;;;;;;;9.80;3.58;;;;;;;;;;5129769;27;20027;-74
2021/06/14 00:13:36;;;;;;;8.68;3.38;;;;;;;;;;5120343;27;20434;-70
2021/06/14 00:16:02;;;;;;;7.50;3.47;;;;;;;;;;5132697;27;20460;-74
2021/06/14 00:18:28;;;;;;;5.78;3.17;;;;;;;;;;5134725;27;20019;-73
2021/06/14 00:20:55;;;;;;;6.57;3.10;;;;;;;;;;5135346;27;20051;-75
2021/06/14 00:23:22;;;;;;;9.48;3.88;;;;;;;;;;5134101;27;20030;-73
2021/06/14 00:25:48;;;;;;;6.70;3.50;;;;;;;;;;5119786;27;20030;-74
2021/06/14 00:28:14;;;;;;;10.23;3.83;;;;;;;;;;5117388;27;20110;-74
2021/06/14 00:30:41;;;;;;;7.28;3.83;;;;;;;;;;5131238;27;20796;-74
2021/06/14 00:33:08;;;;;;;8.15;3.60;;;;;;;;;;5128462;27;20511;-68
2021/06/14 00:35:34;;;;;;;7.15;3.30;;;;;;;;;;5131682;27;20154;-75
2021/06/14 00:38:00;;;;;;;6.53;3.40;;;;;;;;;;5130434;27;20121;-74
2021/06/14 00:40:27;;;;;;;8.00;3.75;;;;;;;;;;5133010;27;20031;-72
2021/06/14 00:42:53;;;;;;;8.35;3.15;;;;;;;;;;5130449;27;20023;-71
2021/06/14 00:45:20;;;;;;;8.63;3.42;;;;;;;;;;5125811;27;20152;-71
2021/06/14 00:47:47;;;;;;;6.50;3.20;;;;;;;;;;5128005;27;20074;-71
2021/06/14 00:50:17;;;;;;;7.38;3.42;;;;;;;;;;5130541;27;20150;-71
2021/06/14 00:52:43;;;;;;;9.85;3.38;;;;;;;;;;5134079;27;20038;-69
2021/06/14 00:55:10;;;;;;;6.38;3.38;;;;;;;;;;5127808;27;20511;-71
2021/06/14 00:57:36;;;;;;;7.15;3.65;;;;;;;;;;5123097;27;20038;-67
2021/06/14 01:00:04;;;;;;;7.53;3.33;;;;;;;;;;5130912;27;20026;-73
2021/06/14 01:02:30;;;;;;;9.00;3.58;;;;;;;;;;5133062;27;20106;-72
2021/06/14 01:04:56;;;;;;;5.70;3.10;;;;;;;;;;5128739;27;20027;-74
2021/06/14 01:07:23;;;;;;;9.48;3.85;;;;;;;;;;5137979;27;20039;-72
2021/06/14 01:09:49;;;;;;;6.28;3.20;;;;;;;;;;5123185;27;20529;-73
2021/06/14 01:12:17;;;;;;;9.13;3.35;;;;;;;;;;5130526;27;20535;-74
2021/06/14 01:14:52;;;;;;;8.25;3.30;;;;;;;;;;5134288;27;20480;-75
2021/06/14 01:17:37;;;;;;;10.32;3.53;;;;;;;;;;5133509;27;20035;-72
2021/06/14 01:20:15;;;;;;;10.52;3.90;;;;;;;;;;5133923;27;20023;-74
2021/06/14 01:22:59;;;;;;;8.20;3.50;;;;;;;;;;5134252;27;20019;-71
2021/06/14 01:25:30;;;;;;;7.60;3.30;;;;;;;;;;5126111;27;20024;-74
2021/06/14 01:28:01;;;;;;;8.52;3.28;;;;;;;;;;5130919;27;20465;-74
2021/06/14 01:30:31;;;;;;;9.32;3.60;;;;;;;;;;5134424;27;20015;-73
2021/06/14 01:32:58;;;;;;;8.40;3.67;;;;;;;;;;5131385;27;20023;-75
2021/06/14 01:35:51;;;;;;;10.07;3.60;;;;;;;;;;5128642;27;20019;-74
2021/06/14 01:38:18;;;;;;;10.73;3.97;;;;;;;;;;5127929;27;20050;-75
2021/06/14 01:40:44;;;;;;;6.82;3.53;;;;;;;;;;5134156;27;20040;-74
2021/06/14 01:43:12;;;;;;;10.70;3.65;;;;;;;;;;5120285;27;20495;-72
2021/06/14 01:45:43;;;;;;;8.95;3.42;;;;;;;;;;5125813;27;20034;-73
2021/06/14 01:48:09;;;;;;;9.85;3.58;;;;;;;;;;5120144;27;20066;-71
2021/06/14 01:50:36;;;;;;;9.77;3.50;;;;;;;;;;5123251;27;20426;-68
2021/06/14 01:53:02;;;;;;;7.75;3.55;;;;;;;;;;5125824;27;20023;-74
2021/06/14 01:55:29;;;;;;;6.18;3.45;;;;;;;;;;5126553;27;20369;-74
2021/06/14 01:57:56;;;;;;;9.43;3.78;;;;;;;;;;5128949;27;20361;-74
2021/06/14 02:00:23;;;;;;;7.65;3.60;;;;;;;;;;5131355;27;20034;-74
2021/06/14 02:02:49;;;;;;;7.60;3.78;;;;;;;;;;5134631;27;20031;-74
2021/06/14 02:05:16;;;;;;;8.57;3.60;;;;;;;;;;5128986;27;20377;-75
2021/06/14 02:07:42;;;;;;;10.45;3.70;;;;;;;;;;5127486;27;20028;-74
2021/06/14 02:10:09;;;;;;;9.05;3.38;;;;;;;;;;5130143;27;20046;-72
2021/06/14 02:12:39;;;;;;;7.93;3.78;;;;;;;;;;5128755;27;20027;-75
2021/06/14 02:15:05;;;;;;;9.25;4.00;;;;;;;;;;5126467;27;20487;-73
2021/06/14 02:17:32;;;;;;;9.65;3.78;;;;;;;;;;5132306;27;20102;-73
2021/06/14 02:19:59;;;;;;;8.85;3.65;;;;;;;;;;5131553;27;20472;-74
2021/06/14 02:22:25;;;;;;;6.45;3.38;;;;;;;;;;5125931;27;20034;-75
2021/06/14 02:24:51;;;;;;;5.35;3.28;;;;;;;;;;5129701;27;20383;-75
2021/06/14 02:27:18;;;;;;;7.60;3.80;;;;;;;;;;5129617;27;20039;-69
2021/06/14 02:29:45;;;;;;;6.80;3.40;;;;;;;;;;5129746;27;20035;-71
2021/06/14 02:32:11;;;;;;;9.32;3.60;;;;;;;;;;5131749;27;20102;-73
2021/06/14 02:34:38;;;;;;;7.60;3.63;;;;;;;;;;5126730;27;20089;-71
2021/06/14 02:37:06;;;;;;;6.50;3.85;;;;;;;;;;5131381;27;20020;-74
2021/06/14 02:39:33;;;;;;;9.80;3.60;;;;;;;;;;5106939;27;20027;-74
2021/06/14 02:41:59;;;;;;;9.10;3.70;;;;;;;;;;5121439;27;20055;-74
2021/06/14 02:44:26;;;;;;;9.73;3.53;;;;;;;;;;5113038;28;20024;-74
2021/06/14 02:46:55;;;;;;;7.20;3.60;;;;;;;;;;5123383;27;20078;-74
2021/06/14 02:49:21;;;;;;;8.43;3.80;;;;;;;;;;5124709;28;20015;-74
2021/06/14 02:51:47;;;;;;;6.35;3.30;;;;;;;;;;5117483;27;20046;-74
2021/06/14 02:54:18;;;;;;;7.90;3.40;;;;;;;;;;5130180;27;20023;-74
2021/06/14 02:56:45;;;;;;;7.32;3.28;;;;;;;;;;5129962;28;20054;-74
2021/06/14 02:59:12;;;;;;;7.07;3.90;;;;;;;;;;5127101;28;20072;-75
2021/06/14 03:01:39;;;;;;;11.23;3.75;;;;;;;;;;5128240;27;20034;-75
2021/06/14 03:04:06;;;;;;;7.95;3.58;;;;;;;;;;5126097;28;20059;-74
2021/06/14 03:06:33;;;;;;;8.23;3.80;;;;;;;;;;5117925;28;20423;-74
2021/06/14 03:09:00;;;;;;;7.35;3.80;;;;;;;;;;5128112;28;20016;-73
2021/06/14 03:11:27;;;;;;;7.80;3.78;;;;;;;;;;5128053;28;20022;-74
2021/06/14 03:13:54;;;;;;;6.60;3.72;;;;;;;;;;5131667;28;20019;-74
2021/06/14 03:16:21;;;;;;;8.70;3.42;;;;;;;;;;5127498;28;20020;-74
2021/06/14 03:18:48;;;;;;;10.43;3.50;;;;;;;;;;5126217;27;20054;-73
2021/06/14 03:21:14;;;;;;;8.77;3.75;;;;;;;;;;5131291;28;20076;-74
2021/06/14 03:23:40;;;;;;;8.80;3.88;;;;;;;;;;5128802;27;20482;-74
2021/06/14 03:26:09;;;;;;;9.73;3.70;;;;;;;;;;5126517;28;20596;-74
2021/06/14 03:28:36;;;;;;;9.75;3.90;;;;;;;;;;5124072;28;20530;-72
2021/06/14 03:31:03;;;;;;;13.55;4.20;;;;;;;;;;5123943;28;20026;-72
2021/06/14 03:33:29;;;;;;;8.10;3.60;;;;;;;;;;5129139;28;20563;-74
2021/06/14 03:35:55;;;;;;;7.80;3.80;;;;;;;;;;5129610;28;20030;-74
2021/06/14 03:38:21;;;;;;;8.60;3.53;;;;;;;;;;5129961;28;20058;-74
2021/06/14 03:40:47;;;;;;;9.50;3.63;;;;;;;;;;5123825;28;20050;-74
2021/06/14 03:43:16;;;;;;;6.78;3.35;;;;;;;;;;5121789;27;20034;-75
2021/06/14 03:45:45;;;;;;;8.98;3.78;;;;;;;;;;5126067;27;20464;-69
2021/06/14 03:48:12;;;;;;;7.22;3.40;;;;;;;;;;5120313;27;20039;-73
2021/06/14 03:50:38;;;;;;;10.05;3.78;;;;;;;;;;5133841;27;20052;-71
2021/06/14 03:53:04;;;;;;;7.72;3.38;;;;;;;;;;5126403;27;20026;-72
2021/06/14 03:55:30;;;;;;;6.07;3.30;;;;;;;;;;5130827;27;20032;-71
2021/06/14 03:57:56;;;;;;;7.28;3.70;;;;;;;;;;5134930;27;20031;-72
2021/06/14 04:00:22;;;;;;;7.70;3.42;;;;;;;;;;5135432;27;20019;-71
2021/06/14 04:02:48;;;;;;;8.35;3.63;;;;;;;;;;5131160;27;20102;-75
2021/06/14 04:05:15;;;;;;;7.88;3.35;;;;;;;;;;5134795;27;20034;-75
2021/06/14 04:07:41;;;;;;;11.25;4.03;;;;;;;;;;5131829;27;20607;-72
2021/06/14 04:10:08;;;;;;;8.00;3.35;;;;;;;;;;5130772;27;20055;-72
2021/06/14 04:12:34;;;;;;;8.50;3.35;;;;;;;;;;5133002;27;20062;-73
2021/06/14 04:15:00;;;;;;;10.40;3.58;;;;;;;;;;5129231;27;20027;-73
2021/06/14 04:17:28;;;;;;;8.43;3.22;;;;;;;;;;5133233;27;20050;-75
2021/06/14 04:19:54;;;;;;;12.15;4.00;;;;;;;;;;5134791;27;20570;-74
2021/06/14 04:22:20;;;;;;;7.07;3.20;;;;;;;;;;5135087;27;20083;-74
2021/06/14 04:24:46;;;;;;;8.13;3.35;;;;;;;;;;5135310;27;20030;-74
2021/06/14 04:27:13;;;;;;;8.15;3.40;;;;;;;;;;5134470;27;20039;-74
2021/06/14 04:29:39;;;;;;;8.27;3.63;;;;;;;;;;5132563;27;20400;-74
2021/06/14 04:32:06;;;;;;;7.00;3.70;;;;;;;;;;5130546;27;20019;-74
2021/06/14 04:34:36;;;;;;;5.43;3.30;;;;;;;;;;5128708;27;20027;-73
2021/06/14 04:37:02;;;;;;;8.05;3.63;;;;;;;;;;5130553;27;20034;-71
2021/06/14 04:39:28;;;;;;;6.40;3.30;;;;;;;;;;5128953;27;20091;-70
2021/06/14 04:41:56;;;;;;;9.63;3.85;;;;;;;;;;5129429;27;20134;-70
2021/06/14 04:44:22;;;;;;;6.60;3.60;;;;;;;;;;5125775;27;20023;-72
2021/06/14 04:46:48;;;;;;;9.15;3.40;;;;;;;;;;5133598;27;20049;-73
2021/06/14 04:49:14;;;;;;;10.25;4.03;;;;;;;;;;5132431;27;20030;-72
2021/06/14 04:51:42;;;;;;;6.45;3.40;;;;;;;;;;5133617;27;20059;-73
2021/06/14 04:54:08;;;;;;;7.28;3.50;;;;;;;;;;5133046;27;20034;-73
2021/06/14 04:56:34;;;;;;;8.75;3.60;;;;;;;;;;5134176;27;20422;-70
2021/06/14 04:59:00;;;;;;;7.03;3.42;;;;;;;;;;5130490;27;20031;-72
2021/06/14 05:01:26;;;;;;;9.73;3.33;;;;;;;;;;5136786;27;20077;-73
2021/06/14 05:03:55;;;;;;;10.20;3.45;;;;;;;;;;5132991;27;20031;-73
2021/06/14 05:06:21;;;;;;;7.13;3.85;;;;;;;;;;5131227;27;20069;-73
2021/06/14 05:08:47;;;;;;;8.98;3.80;;;;;;;;;;5135305;27;20041;-72
2021/06/14 05:11:13;;;;;;;8.27;3.75;;;;;;;;;;5132607;27;20022;-72
2021/06/14 05:13:39;;;;;;;8.95;3.92;;;;;;;;;;5131720;27;20130;-69
2021/06/14 05:16:05;;;;;;;8.73;3.78;;;;;;;;;;5131165;27;20049;-71
2021/06/14 05:18:31;;;;;;;8.98;3.53;;;;;;;;;;5135845;27;20442;-73
2021/06/14 05:20:58;;;;;;;5.93;3.50;;;;;;;;;;5108638;27;20395;-73
2021/06/14 05:23:24;;;;;;;6.97;3.40;;;;;;;;;;5143109;27;20075;-72
2021/06/14 05:25:50;;;;;;;8.75;3.60;;;;;;;;;;5146980;27;20019;-72
2021/06/14 05:28:16;;;;;;;7.15;3.33;;;;;;;;;;5137577;27;20498;-72
2021/06/14 05:30:44;;;;;;;6.30;3.47;;;;;;;;;;5141001;27;20022;-72
2021/06/14 05:33:10;;;;;;;7.88;3.85;;;;;;;;;;5135558;27;20019;-72
2021/06/14 05:35:36;;;;;;;7.10;3.55;;;;;;;;;;5133694;27;20019;-67
2021/06/14 05:38:02;;;;;;;7.18;3.58;;;;;;;;;;5130619;27;20425;-65
2021/06/14 05:40:29;;;;;;;6.97;3.47;;;;;;;;;;5119358;27;20055;-67
2021/06/14 05:42:55;;;;;;;8.38;3.53;;;;;;;;;;5136192;27;20021;-64
2021/06/14 05:45:21;;;;;;;9.18;3.42;;;;;;;;;;5132153;27;20015;-64
2021/06/14 05:47:48;;;;;;;10.80;4.00;;;;;;;;;;5132679;27;20376;-72
2021/06/14 05:50:14;;;;;;;12.23;4.30;;;;;;;;;;5133085;27;20023;-72
2021/06/14 05:52:40;;;;;;;12.18;4.10;;;;;;;;;;5104851;27;20027;-72
2021/06/14 05:55:09;;;;;;;9.60;3.70;;;;;;;;;;5129994;27;20046;-71
2021/06/14 05:57:35;;;;;;;9.15;3.47;;;;;;;;;;5121574;27;20487;-72
2021/06/14 06:00:01;;;;;;;8.15;3.30;;;;;;;;;;5131378;27;20423;-65
2021/06/14 06:02:27;;;;;;;10.48;3.60;;;;;;;;;;5131338;27;20085;-67
2021/06/14 06:04:54;;;;;;;8.23;3.35;;;;;;;;;;5129663;27;20542;-67
2021/06/14 06:07:20;;;;;;;7.50;3.20;;;;;;;;;;5131123;27;20034;-71
2021/06/14 06:09:46;;;;;;;7.05;3.38;;;;;;;;;;5131635;27;20532;-71
2021/06/14 06:12:12;;;;;;;5.32;3.00;;;;;;;;;;5133257;27;20026;-72
2021/06/14 06:14:39;;;;;;;8.38;3.40;;;;;;;;;;5127560;27;20023;-72
2021/06/14 06:17:05;;;;;;;5.93;3.25;;;;;;;;;;5131210;27;20087;-74
2021/06/14 06:19:31;;;;;;;7.22;3.33;;;;;;;;;;5131256;27;20532;-72
2021/06/14 06:21:57;;;;;;;8.57;3.65;;;;;;;;;;5127190;27;20023;-70
2021/06/14 06:24:23;;;;;;;7.25;3.10;;;;;;;;;;5131967;27;20027;-71
2021/06/14 06:26:49;;;;;;;8.43;3.35;;;;;;;;;;5127822;27;20023;-74
2021/06/14 06:29:15;;;;;;;8.27;3.28;;;;;;;;;;5126672;27;20058;-74
2021/06/14 06:31:41;;;;;;;9.88;3.40;;;;;;;;;;5128883;27;20019;-74
2021/06/14 06:34:07;;;;;;;5.85;3.47;;;;;;;;;;5129080;27;20027;-72
2021/06/14 06:36:33;;;;;;;6.10;3.08;;;;;;;;;;5127333;27;20117;-75
2021/06/14 06:39:02;;;;;;;12.57;3.40;;;;;;;;;;5127586;27;20038;-73
2021/06/14 06:41:28;;;;;;;7.30;3.20;;;;;;;;;;5128574;27;20054;-74
2021/06/14 06:43:54;;;;;;;11.13;3.60;;;;;;;;;;5127251;27;20508;-69
2021/06/14 06:46:20;;;;;;;7.13;3.17;;;;;;;;;;5126878;27;20815;-71
2021/06/14 06:48:46;;;;;;;6.82;3.05;;;;;;;;;;5126080;27;20110;-70
2021/06/14 06:51:12;;;;;;;10.00;3.33;;;;;;;;;;5126807;27;20033;-69
2021/06/14 06:53:38;;;;;;;7.57;3.20;;;;;;;;;;5107512;27;20023;-71
2021/06/14 06:56:05;;;;;;;15.85;3.53;;;;;;;;;;5127946;27;20026;-71
2021/06/14 06:58:31;;;;;;;5.72;2.97;;;;;;;;;;5100854;28;20130;-71
2021/06/14 07:00:58;;;;;;;6.22;3.20;;;;;;;;;;5123042;28;20027;-72
2021/06/14 07:03:24;;;;;;;8.60;3.30;;;;;;;;;;5130243;28;21737;-72
2021/06/14 07:05:50;;;;;;;7.85;3.35;;;;;;;;;;5125865;28;20023;-71
2021/06/14 07:08:17;;;;;;;8.65;3.70;;;;;;;;;;5123821;28;20038;-72
2021/06/14 07:10:43;;;;;;;8.32;3.33;;;;;;;;;;5110098;28;20031;-68
2021/06/14 07:13:09;;;;;;;8.77;3.40;;;;;;;;;;5127411;28;20027;-71
2021/06/14 07:15:36;;;;;;;10.07;3.30;;;;;;;;;;5128136;28;20023;-70
2021/06/14 07:18:02;;;;;;;7.63;3.20;;;;;;;;;;5125859;27;20128;-70
2021/06/14 07:20:28;;;;;;;9.50;3.40;;;;;;;;;;5135330;27;20027;-70
2021/06/14 07:22:55;;;;;;;8.50;3.67;;;;;;;;;;5133541;27;20046;-71
2021/06/14 07:25:21;;;;;;;6.82;3.42;;;;;;;;;;5127752;27;20055;-72
2021/06/14 07:27:48;;;;;;;7.20;3.08;;;;;;;;;;5135334;27;20070;-73
2021/06/14 07:30:17;;;;;;;7.13;2.97;;;;;;;;;;5139286;27;20054;-73
2021/06/14 07:32:43;;;;;;;10.82;3.42;;;;;;;;;;5136347;27;20109;-69
2021/06/14 07:35:10;;;;;;;6.18;3.10;;;;;;;;;;5133536;27;20803;-67
2021/06/14 07:37:38;;;;;;;10.35;3.22;;;;;;;;;;5133626;27;20031;-73
2021/06/14 07:40:06;;;;;;;10.38;3.60;;;;;;;;;;5130728;27;20015;-70
2021/06/14 07:42:32;;;;;;;7.05;2.85;;;;;;;;;;5133803;27;20754;-73
2021/06/14 07:44:58;;;;;;;8.60;3.10;;;;;;;;;;5134513;27;20055;-71
2021/06/14 07:47:25;;;;;;;6.30;2.90;;;;;;;;;;5138064;27;20475;-71
2021/06/14 07:49:51;;;;;;;7.95;3.50;;;;;;;;;;5130416;27;20023;-73
2021/06/14 07:52:17;;;;;;;6.63;3.08;;;;;;;;;;5136799;27;20031;-71
2021/06/14 07:54:43;;;;;;;6.15;3.15;;;;;;;;;;5115769;27;20070;-72
2021/06/14 07:57:09;;;;;;;11.90;3.00;;;;;;;;;;5135136;27;20023;-72
2021/06/14 07:59:35;;;;;;;8.35;2.95;;;;;;;;;;5134158;27;20019;-72
2021/06/14 08:02:02;;;;;;;7.82;3.33;;;;;;;;;;5127063;27;20062;-68
2021/06/14 08:04:28;;;;;;;5.82;2.90;;;;;;;;;;5132745;27;20563;-73
2021/06/14 08:06:54;;;;;;;10.38;2.97;;;;;;;;;;5136950;27;20536;-72
2021/06/14 08:09:31;;;;;;;6.63;2.90;;;;;;;;;;5131482;27;20096;-73
2021/06/14 08:11:58;;;;;;;6.07;3.15;;;;;;;;;;5132877;27;20034;-72
2021/06/14 08:14:24;;;;;;;10.00;3.60;;;;;;;;;;5133769;27;20421;-72
2021/06/14 08:16:51;;;;;;;7.00;2.95;;;;;;;;;;5137545;27;20071;-73
2021/06/14 08:19:44;;;;;;;7.95;2.72;;;;;;;;;;5121748;27;20033;-72
2021/06/14 08:22:29;;;;;;;7.25;2.90;;;;;;;;;;5133366;27;20034;-71
2021/06/14 08:25:07;;;;;;;10.05;3.08;;;;;;;;;;5137484;27;20031;-74
2021/06/14 08:27:37;;;;;;;6.50;3.22;;;;;;;;;;5130385;27;20481;-69
2021/06/14 08:30:06;;;;;;;6.72;2.70;;;;;;;;;;5129170;27;20034;-67
2021/06/14 08:32:32;;;;;;;6.35;2.83;;;;;;;;;;5131361;27;20031;-64
2021/06/14 08:34:58;;;;;;;7.28;3.15;;;;;;;;;;5131758;27;20027;-64
2021/06/14 08:37:24;;;;;;;5.47;2.95;;;;;;;;;;5128694;27;20037;-63
2021/06/14 08:39:51;;;;;;;5.43;3.08;;;;;;;;;;5129521;27;20400;-64
2021/06/14 08:42:17;;;;;;;5.60;2.83;;;;;;;;;;5130386;27;20019;-69
2021/06/14 08:44:43;;;;;;;7.10;2.90;;;;;;;;;;5126655;27;20029;-70
2021/06/14 08:47:10;;;;;;;8.93;2.90;;;;;;;;;;5129878;27;20035;-72
2021/06/14 08:49:37;;;;;;;12.38;3.70;;;;;;;;;;5110155;27;20031;-70
2021/06/14 08:52:06;;;;;;;8.68;2.90;;;;;;;;;;5126603;27;20035;-71
2021/06/14 08:54:33;;;;;;;7.85;3.30;;;;;;;;;;5126495;27;20030;-64
2021/06/14 08:56:59;;;;;;;6.40;3.25;;;;;;;;;;5130333;27;20027;-72
2021/06/14 08:59:25;;;;;;;9.00;3.50;;;;;;;;;;5129734;27;20072;-73
2021/06/14 09:01:52;;;;;;;8.70;3.53;;;;;;;;;;5107487;27;20073;-73
2021/06/14 09:04:20;;;;;;;9.98;3.38;;;;;;;;;;5131562;27;20102;-74
2021/06/14 09:06:46;;;;;;;11.20;3.10;;;;;;;;;;5131047;27;20057;-76
2021/06/14 09:09:12;;;;;;;11.15;3.00;;;;;;;;;;5115668;27;20445;-70
2021/06/14 09:11:47;;;;;;;8.95;2.97;;;;;;;;;;5123504;27;20028;-69
2021/06/14 09:14:14;;;;;;;7.63;3.05;;;;;;;;;;5126410;27;20030;-69
2021/06/14 09:16:40;;;;;;;8.35;3.30;;;;;;;;;;5132139;27;20031;-67
2021/06/14 09:19:06;;;;;;;9.55;3.05;;;;;;;;;;5128532;27;20481;-65
2021/06/14 09:21:32;;;;;;;7.35;2.85;;;;;;;;;;5126603;27;20037;-70
2021/06/14 09:24:02;;;;;;;8.98;3.10;;;;;;;;;;5129767;27;20564;-70
2021/06/14 09:26:35;;;;;;;9.35;3.40;;;;;;;;;;5129384;27;20026;-70
2021/06/14 09:29:04;;;;;;;11.48;3.45;;;;;;;;;;5136223;27;20100;-68
2021/06/14 09:31:37;;;;;;;6.88;3.53;;;;;;;;;;5136638;27;20038;-67
2021/06/14 09:34:03;;;;;;;;;;;;;;;;;;5127984;27;20023;-76
2021/06/14 09:36:30;;;;;;;9.02;3.10;;;;;;;;;;5128132;27;20437;-73
2021/06/14 09:39:05;;;;;;;7.38;2.88;;;;;;;;;;5131605;27;20023;-77
2021/06/14 09:41:37;;;;;;;7.80;3.38;;;;;;;;;;5116129;27;20383;-63
2021/06/14 09:44:05;;;;;;;9.10;2.90;;;;;;;;;;5128817;27;20046;-73
2021/06/14 09:46:33;;;;;;;10.30;3.05;;;;;;;;;;5131781;27;20043;-72
2021/06/14 09:49:01;;;;;;;10.05;2.83;;;;;;;;;;5132296;27;20037;-73
2021/06/14 09:51:29;;;;;;;10.52;2.80;;;;;;;;;;5131040;27;20098;-71
2021/06/14 09:53:55;;;;;;;8.13;2.97;;;;;;;;;;5131384;27;20072;-69
2021/06/14 09:56:21;;;;;;;8.65;2.80;;;;;;;;;;5132275;27;20031;-73
2021/06/14 11:15:35;;;;;;;5.78;2.40;;;;;;;;;;5297372;22;20061;-75
2021/06/14 11:18:06;;;;;;;5.65;2.10;;;;;;;;;;5043430;28;20025;-71
2021/06/14 11:20:33;;;;;;;7.10;2.53;;;;;;;;;;5051088;28;20021;-69
2021/06/14 11:22:59;;;;;;;3.28;1.98;;;;;;;;;;5043857;28;20029;-70
2021/06/14 11:25:28;;;;;;;4.43;2.00;;;;;;;;;;5046219;28;20047;-76
2021/06/14 11:27:54;;;;;;;5.07;2.10;;;;;;;;;;5049680;28;20071;-67
2021/06/14 11:30:29;;;;;;;4.30;2.10;;;;;;;;;;5050887;28;20108;-69
2021/06/14 11:32:56;;;;;;;2.67;1.85;;;;;;;;;;5043431;28;20056;-67
2021/06/14 11:35:22;;;;;;;4.40;2.08;;;;;;;;;;5044488;28;20482;-66
2021/06/14 11:37:49;;;;;;;7.43;2.42;;;;;;;;;;5049081;28;20112;-65
2021/06/14 11:40:16;;;;;;;5.25;2.30;;;;;;;;;;5049442;28;20044;-69
2021/06/14 11:42:43;;;;;;;5.40;2.00;;;;;;;;;;5050138;28;20028;-71
2021/06/14 11:45:10;;;;;;;6.53;2.45;;;;;;;;;;5045111;28;20032;-71
2021/06/14 11:47:40;;;;;;;6.75;2.30;;;;;;;;;;5050708;28;20107;-70
2021/06/14 11:50:10;;;;;;;4.47;2.25;;;;;;;;;;5048912;28;20044;-63
2021/06/14 11:52:37;;;;;;;3.95;2.20;;;;;;;;;;5046559;28;20036;-67
2021/06/14 11:55:07;;;;;;;3.33;2.17;;;;;;;;;;5043509;28;20028;-70
2021/06/14 11:57:35;;;;;;;6.50;2.47;;;;;;;;;;5050030;28;20516;-66
2021/06/14 12:00:01;;;;;;;4.93;2.15;;;;;;;;;;5050031;28;20028;-69
2021/06/14 12:02:28;;;;;;;7.43;2.63;;;;;;;;;;5050687;28;20100;-69
2021/06/14 12:04:55;;;;;;;5.35;2.17;;;;;;;;;;5049383;28;20036;-66
2021/06/14 12:07:35;;;;;;;7.93;2.40;;;;;;;;;;5051785;28;20036;-72
2021/06/14 12:10:09;;;;;;;4.72;2.33;;;;;;;;;;5053507;28;20028;-75
2021/06/14 12:12:36;;;;;;;7.72;2.80;;;;;;;;;;5053923;28;20095;-70
2021/06/14 12:15:05;;;;;;;8.80;2.55;;;;;;;;;;5047765;28;20052;-71
2021/06/14 12:17:32;;;;;;;4.25;2.33;;;;;;;;;;5050199;28;20013;-71
2021/06/14 12:20:00;;;;;;;4.32;2.30;;;;;;;;;;5053138;28;20033;-70
2021/06/14 12:22:27;;;;;;;8.73;2.90;;;;;;;;;;5055753;28;20044;-72
2021/06/14 12:24:53;;;;;;;3.65;2.10;;;;;;;;;;5046980;28;20500;-72
2021/06/14 12:27:20;;;;;;;3.88;2.17;;;;;;;;;;5047198;28;20396;-72
2021/06/14 12:29:46;;;;;;;3.15;1.95;;;;;;;;;;5037949;28;20100;-71
2021/06/14 12:32:16;;;;;;;3.53;2.38;;;;;;;;;;5049822;28;20500;-76
2021/06/14 12:34:44;;;;;;;5.28;2.60;;;;;;;;;;5037859;28;20558;-76
2021/06/14 12:37:13;;;;;;;3.22;2.08;;;;;;;;;;5065092;28;20036;-67
2021/06/14 12:39:40;;;;;;;27.30;3.20;;;;;;;;;;5051381;28;20021;-78
2021/06/14 12:42:19;;;;;;;8.15;2.58;;;;;;;;;;5031351;28;20120;-72
2021/06/14 12:44:54;;;;;;;6.85;2.40;;;;;;;;;;5049027;28;20039;-74
2021/06/14 12:47:21;;;;;;;4.57;2.30;;;;;;;;;;5032945;28;20021;-73
2021/06/14 12:49:49;;;;;;;5.97;2.70;;;;;;;;;;5038021;28;20044;-72
2021/06/14 12:52:17;;;;;;;7.18;2.83;;;;;;;;;;5041793;28;20072;-71
2021/06/14 12:54:43;;;;;;;10.38;3.40;;;;;;;;;;5043312;28;20036;-66
2021/06/14 12:57:09;;;;;;;7.93;3.00;;;;;;;;;;5018836;28;20036;-72
2021/06/14 12:59:35;;;;;;;7.03;3.00;;;;;;;;;;5040997;28;20159;-70
2021/06/14 13:02:02;;;;;;;6.95;3.00;;;;;;;;;;5043384;28;20025;-71
2021/06/14 13:04:28;;;;;;;5.57;3.20;;;;;;;;;;5036175;28;20031;-73
2021/06/14 13:06:54;;;;;;;6.13;3.20;;;;;;;;;;5040399;28;20076;-71
2021/06/14 13:09:20;;;;;;;4.45;2.92;;;;;;;;;;5038738;28;20033;-73
2021/06/14 13:11:48;;;;;;;9.50;2.65;;;;;;;;;;5035718;28;20111;-73
2021/06/14 13:14:25;;;;;;;6.50;3.05;;;;;;;;;;5053136;28;20037;-73
2021/06/14 13:16:53;;;;;;;6.40;2.63;;;;;;;;;;5044381;28;20037;-73
2021/06/14 13:19:24;;;;;;;5.68;2.78;;;;;;;;;;5041142;28;20029;-73
2021/06/14 13:21:50;;;;;;;9.10;2.95;;;;;;;;;;5029727;28;20082;-76
2021/06/14 13:24:16;;;;;;;7.25;3.08;;;;;;;;;;5050755;28;20112;-70
2021/06/14 13:26:42;;;;;;;7.90;3.03;;;;;;;;;;5041840;28;20036;-75
2021/06/14 13:29:13;;;;;;;12.20;3.30;;;;;;;;;;5046061;28;20059;-71
2021/06/14 13:31:41;;;;;;;5.32;2.72;;;;;;;;;;5055059;28;20036;-69
2021/06/14 13:34:10;;;;;;;13.43;3.00;;;;;;;;;;5057383;28;20076;-77
2021/06/14 13:36:42;;;;;;;5.60;2.80;;;;;;;;;;5053510;28;20552;-73
2021/06/14 13:39:13;;;;;;;13.18;3.05;;;;;;;;;;5051474;28;20036;-76
2021/06/14 13:41:39;;;;;;;8.88;2.97;;;;;;;;;;5048293;28;20025;-73
2021/06/14 13:44:19;;;;;;;7.03;2.80;;;;;;;;;;5059102;28;20100;-73
2021/06/14 13:46:50;;;;;;;6.88;2.80;;;;;;;;;;5050806;28;20011;-71
2021/06/14 13:49:25;;;;;;;5.15;2.80;;;;;;;;;;5048723;28;20044;-70
2021/06/14 13:51:58;;;;;;;8.00;2.90;;;;;;;;;;5049093;28;20056;-76
2021/06/14 13:54:24;;;;;;;9.07;3.20;;;;;;;;;;5035357;28;20021;-68
2021/06/14 13:56:53;;;;;;;4.97;2.58;;;;;;;;;;5050642;28;20025;-76
2021/06/14 13:59:19;;;;;;;3.92;2.28;;;;;;;;;;5055566;28;20032;-75
2021/06/14 14:01:45;;;;;;;9.23;2.70;;;;;;;;;;5060697;28;20029;-73
2021/06/14 14:04:16;;;;;;;6.85;2.70;;;;;;;;;;5052210;28;20051;-64
2021/06/14 14:06:42;;;;;;;5.95;2.30;;;;;;;;;;5054577;28;20013;-62
2021/06/14 14:09:08;;;;;;;8.43;2.88;;;;;;;;;;5043969;28;20068;-71
2021/06/14 14:11:34;;;;;;;7.03;2.70;;;;;;;;;;5052767;28;20036;-71
2021/06/14 14:14:02;;;;;;;6.28;2.85;;;;;;;;;;5054113;28;20038;-66
2021/06/14 14:16:28;;;;;;;8.38;2.63;;;;;;;;;;5046775;28;20048;-73
2021/06/14 14:18:55;;;;;;;5.40;2.58;;;;;;;;;;5043506;28;20029;-64
2021/06/14 14:21:21;;;;;;;5.95;2.47;;;;;;;;;;5040413;28;20071;-69
2021/06/14 14:23:47;;;;;;;5.07;2.58;;;;;;;;;;5037746;28;20462;-67
2021/06/14 14:26:13;;;;;;;8.27;2.80;;;;;;;;;;5036520;28;20041;-71
2021/06/14 14:28:39;;;;;;;9.20;3.03;;;;;;;;;;5042014;28;20033;-73
2021/06/14 14:31:06;;;;;;;18.70;4.70;;;;;;;;;;5048799;28;20021;-67
2021/06/14 14:33:33;;;;;;;11.00;3.13;;;;;;;;;;5047718;28;20017;-63
2021/06/14 14:36:18;;;;;;;6.05;2.90;;;;;;;;;;5050852;28;20043;-69
2021/06/14 14:38:49;;;;;;;7.32;2.72;;;;;;;;;;5041198;28;20506;-67
2021/06/14 14:41:19;;;;;;;7.00;3.00;;;;;;;;;;5046476;28;20386;-70
2021/06/14 14:43:46;;;;;;;5.85;2.97;;;;;;;;;;5048309;28;20044;-66
2021/06/14 14:46:13;;;;;;;7.28;2.58;;;;;;;;;;5040827;28;20025;-70
2021/06/14 14:48:41;;;;;;;7.18;2.60;;;;;;;;;;5052593;28;20052;-71
2021/06/14 14:51:09;;;;;;;8.40;3.05;;;;;;;;;;5045533;28;20036;-72
2021/06/14 14:53:35;;;;;;;6.30;2.78;;;;;;;;;;5049987;28;20436;-71
2021/06/14 14:56:01;;;;;;;6.90;2.90;;;;;;;;;;5048175;28;20021;-69
2021/06/14 14:58:28;;;;;;;5.10;2.60;;;;;;;;;;5049361;28;20055;-70
2021/06/14 15:00:54;;;;;;;5.63;2.90;;;;;;;;;;5050240;28;20021;-72
2021/06/14 15:03:20;;;;;;;7.80;2.97;;;;;;;;;;5046434;28;20029;-67
2021/06/14 15:05:46;;;;;;;11.65;3.95;;;;;;;;;;5048201;28;20037;-69
2021/06/14 15:08:12;;;;;;;12.70;4.25;;;;;;;;;;5049895;28;20035;-69
2021/06/14 15:10:39;;;;;;;6.10;3.17;;;;;;;;;;5047773;28;20055;-73
2021/06/14 15:13:05;;;;;;;7.38;3.05;;;;;;;;;;5049445;28;20017;-72
2021/06/14 15:15:31;;;;;;;6.78;2.90;;;;;;;;;;5040015;28;20436;-73
2021/06/14 15:17:57;;;;;;;7.25;2.83;;;;;;;;;;5043141;28;20513;-71
2021/06/14 15:20:25;;;;;;;4.97;2.80;;;;;;;;;;5036221;28;20247;-72
2021/06/14 15:22:51;;;;;;;5.85;2.92;;;;;;;;;;5036976;28;20492;-70
2021/06/14 15:25:19;;;;;;;6.65;2.92;;;;;;;;;;5041137;28;20025;-70
2021/06/14 15:27:45;;;;;;;8.95;3.13;;;;;;;;;;5038226;28;20471;-73
2021/06/14 15:30:12;;;;;;;6.72;2.90;;;;;;;;;;5038638;28;20098;-70
2021/06/14 15:32:44;;;;;;;10.40;3.25;;;;;;;;;;5047784;28;20390;-69
2021/06/14 15:35:11;;;;;;;5.93;2.55;;;;;;;;;;5044711;28;20394;-69
2021/06/14 15:37:37;;;;;;;5.22;3.00;;;;;;;;;;5045808;28;20159;-70
2021/06/14 15:40:03;;;;;;;11.75;3.13;;;;;;;;;;5052087;28;20017;-65
2021/06/14 15:42:29;;;;;;;5.18;3.00;;;;;;;;;;5050622;28;20083;-69
2021/06/14 15:44:55;;;;;;;6.88;3.10;;;;;;;;;;5053990;28;20441;-67
2021/06/14 15:47:21;;;;;;;7.78;3.10;;;;;;;;;;5051909;28;20074;-69
2021/06/14 15:49:47;;;;;;;7.82;3.10;;;;;;;;;;5051116;28;20041;-66
2021/06/14 15:52:13;;;;;;;7.45;3.42;;;;;;;;;;5053167;28;20052;-67
2021/06/14 15:54:39;;;;;;;7.13;2.90;;;;;;;;;;5051687;28;20159;-67
2021/06/14 15:57:06;;;;;;;7.60;3.00;;;;;;;;;;5054025;28;20375;-69
2021/06/14 15:59:32;;;;;;;14.75;3.35;;;;;;;;;;5050511;28;20027;-66